Terminal Aerodrome Forecast
Issued by NWS Sioux Falls, SD

Home | Current Version | Previous Version | Graphics & Text | Print | Product List | Glossary Off
Versions: 1 2 3 4 5 6 7 8 9 10 11 12 13 14

000
FTUS43 KFSD 281720
TAFFSD
TAF
KFSD 281720Z 2818/2918 30018G25KT P6SM SCT060
     FM290100 31018G26KT P6SM VCTS BKN070CB
     FM290400 29007KT P6SM SCT070
     FM291300 30012KT P6SM FEW120
     FM291600 31016G24KT P6SM BKN040=

USA.gov is the U.S. government's official web portal to all federal, state and local government web resources and services.